sensor_id;sensor_type;location;lat;lon;timestamp;P1;durP1;ratioP1;P2;durP2;ratioP2
39340;SDS011;25059;52.132;21.062;2023-02-28T00:00:45;0.28;;;0.28;;
39340;SDS011;25059;52.132;21.062;2023-02-28T00:03:30;0.30;;;0.30;;
39340;SDS011;25059;52.132;21.062;2023-02-28T00:06:19;0.30;;;0.30;;
39340;SDS011;25059;52.132;21.062;2023-02-28T00:09:04;0.32;;;0.32;;
39340;SDS011;25059;52.132;21.062;2023-02-28T00:11:49;0.30;;;0.30;;
39340;SDS011;25059;52.132;21.062;2023-02-28T00:14:34;0.30;;;0.30;;
39340;SDS011;25059;52.132;21.062;2023-02-28T00:17:18;0.30;;;0.30;;
39340;SDS011;25059;52.132;21.062;2023-02-28T00:20:05;0.20;;;0.20;;
39340;SDS011;25059;52.132;21.062;2023-02-28T00:22:52;0.20;;;0.20;;
39340;SDS011;25059;52.132;21.062;2023-02-28T00:25:38;0.30;;;0.30;;
39340;SDS011;25059;52.132;21.062;2023-02-28T00:28:22;0.20;;;0.20;;
39340;SDS011;25059;52.132;21.062;2023-02-28T00:31:07;0.30;;;0.30;;
39340;SDS011;25059;52.132;21.062;2023-02-28T00:33:52;0.28;;;0.28;;
39340;SDS011;25059;52.132;21.062;2023-02-28T00:36:36;0.30;;;0.30;;
39340;SDS011;25059;52.132;21.062;2023-02-28T00:39:22;0.30;;;0.30;;
39340;SDS011;25059;52.132;21.062;2023-02-28T00:42:07;0.30;;;0.30;;
39340;SDS011;25059;52.132;21.062;2023-02-28T00:44:51;0.30;;;0.30;;
39340;SDS011;25059;52.132;21.062;2023-02-28T00:47:36;0.20;;;0.20;;
39340;SDS011;25059;52.132;21.062;2023-02-28T00:50:20;0.20;;;0.20;;
39340;SDS011;25059;52.132;21.062;2023-02-28T00:53:05;0.20;;;0.20;;
39340;SDS011;25059;52.132;21.062;2023-02-28T00:55:50;0.20;;;0.20;;
39340;SDS011;25059;52.132;21.062;2023-02-28T00:58:35;0.22;;;0.22;;
39340;SDS011;25059;52.132;21.062;2023-02-28T01:01:20;0.30;;;0.30;;
39340;SDS011;25059;52.132;21.062;2023-02-28T01:04:04;0.20;;;0.20;;
39340;SDS011;25059;52.132;21.062;2023-02-28T01:06:49;0.20;;;0.20;;
39340;SDS011;25059;52.132;21.062;2023-02-28T01:09:34;0.20;;;0.20;;
39340;SDS011;25059;52.132;21.062;2023-02-28T01:12:18;0.20;;;0.20;;
39340;SDS011;25059;52.132;21.062;2023-02-28T01:15:03;0.28;;;0.28;;
39340;SDS011;25059;52.132;21.062;2023-02-28T01:17:48;0.30;;;0.30;;
39340;SDS011;25059;52.132;21.062;2023-02-28T01:20:33;0.20;;;0.20;;
39340;SDS011;25059;52.132;21.062;2023-02-28T01:23:21;0.30;;;0.30;;
39340;SDS011;25059;52.132;21.062;2023-02-28T01:26:08;0.30;;;0.30;;
39340;SDS011;25059;52.132;21.062;2023-02-28T01:28:55;0.40;;;0.40;;
39340;SDS011;25059;52.132;21.062;2023-02-28T01:31:40;0.30;;;0.30;;
39340;SDS011;25059;52.132;21.062;2023-02-28T01:34:25;0.25;;;0.25;;
39340;SDS011;25059;52.132;21.062;2023-02-28T01:37:09;0.40;;;0.40;;
39340;SDS011;25059;52.132;21.062;2023-02-28T01:39:54;0.30;;;0.30;;
39340;SDS011;25059;52.132;21.062;2023-02-28T01:42:39;0.30;;;0.30;;
39340;SDS011;25059;52.132;21.062;2023-02-28T01:45:27;0.30;;;0.30;;
39340;SDS011;25059;52.132;21.062;2023-02-28T01:51:00;0.25;;;0.25;;
39340;SDS011;25059;52.132;21.062;2023-02-28T01:53:52;0.30;;;0.30;;
39340;SDS011;25059;52.132;21.062;2023-02-28T01:56:46;0.30;;;0.30;;
39340;SDS011;25059;52.132;21.062;2023-02-28T01:59:41;0.30;;;0.30;;
39340;SDS011;25059;52.132;21.062;2023-02-28T02:02:32;0.22;;;0.22;;
39340;SDS011;25059;52.132;21.062;2023-02-28T02:05:19;0.30;;;0.30;;
39340;SDS011;25059;52.132;21.062;2023-02-28T02:08:09;0.20;;;0.20;;
39340;SDS011;25059;52.132;21.062;2023-02-28T02:10:57;0.20;;;0.20;;
39340;SDS011;25059;52.132;21.062;2023-02-28T02:14:03;0.20;;;0.20;;
39340;SDS011;25059;52.132;21.062;2023-02-28T02:32:04;0.30;;;0.30;;
39340;SDS011;25059;52.132;21.062;2023-02-28T02:44:21;0.30;;;0.30;;
39340;SDS011;25059;52.132;21.062;2023-02-28T02:47:11;0.30;;;0.30;;
39340;SDS011;25059;52.132;21.062;2023-02-28T02:50:01;0.30;;;0.30;;
39340;SDS011;25059;52.132;21.062;2023-02-28T02:52:51;0.30;;;0.30;;
39340;SDS011;25059;52.132;21.062;2023-02-28T02:55:41;0.40;;;0.40;;
39340;SDS011;25059;52.132;21.062;2023-02-28T02:58:31;0.20;;;0.20;;
39340;SDS011;25059;52.132;21.062;2023-02-28T03:01:21;0.30;;;0.30;;
39340;SDS011;25059;52.132;21.062;2023-02-28T03:04:13;0.30;;;0.30;;
39340;SDS011;25059;52.132;21.062;2023-02-28T03:07:02;0.30;;;0.30;;
39340;SDS011;25059;52.132;21.062;2023-02-28T03:09:51;0.38;;;0.38;;
39340;SDS011;25059;52.132;21.062;2023-02-28T03:12:41;0.32;;;0.32;;
39340;SDS011;25059;52.132;21.062;2023-02-28T03:15:43;0.40;;;0.40;;
39340;SDS011;25059;52.132;21.062;2023-02-28T03:18:44;0.30;;;0.30;;
39340;SDS011;25059;52.132;21.062;2023-02-28T03:22:03;0.40;;;0.40;;
39340;SDS011;25059;52.132;21.062;2023-02-28T03:27:48;0.30;;;0.30;;
39340;SDS011;25059;52.132;21.062;2023-02-28T03:30:39;0.30;;;0.30;;
39340;SDS011;25059;52.132;21.062;2023-02-28T03:33:34;0.30;;;0.30;;
39340;SDS011;25059;52.132;21.062;2023-02-28T03:36:25;0.30;;;0.30;;
39340;SDS011;25059;52.132;21.062;2023-02-28T03:39:16;0.20;;;0.20;;
39340;SDS011;25059;52.132;21.062;2023-02-28T03:42:07;0.40;;;0.40;;
39340;SDS011;25059;52.132;21.062;2023-02-28T03:45:00;0.40;;;0.40;;
39340;SDS011;25059;52.132;21.062;2023-02-28T03:47:54;0.30;;;0.30;;
39340;SDS011;25059;52.132;21.062;2023-02-28T03:51:00;0.30;;;0.30;;
39340;SDS011;25059;52.132;21.062;2023-02-28T03:53:48;0.20;;;0.20;;
39340;SDS011;25059;52.132;21.062;2023-02-28T03:59:28;0.40;;;0.40;;
39340;SDS011;25059;52.132;21.062;2023-02-28T04:02:18;0.30;;;0.30;;
39340;SDS011;25059;52.132;21.062;2023-02-28T04:05:04;0.30;;;0.30;;
39340;SDS011;25059;52.132;21.062;2023-02-28T04:07:49;0.30;;;0.30;;
39340;SDS011;25059;52.132;21.062;2023-02-28T04:10:34;0.30;;;0.30;;
39340;SDS011;25059;52.132;21.062;2023-02-28T04:13:18;0.30;;;0.30;;
39340;SDS011;25059;52.132;21.062;2023-02-28T04:16:06;0.30;;;0.30;;
39340;SDS011;25059;52.132;21.062;2023-02-28T04:18:56;0.30;;;0.30;;
39340;SDS011;25059;52.132;21.062;2023-02-28T04:21:49;0.30;;;0.30;;
39340;SDS011;25059;52.132;21.062;2023-02-28T04:24:35;0.40;;;0.40;;
39340;SDS011;25059;52.132;21.062;2023-02-28T04:27:20;0.30;;;0.30;;
39340;SDS011;25059;52.132;21.062;2023-02-28T04:30:05;0.30;;;0.30;;
39340;SDS011;25059;52.132;21.062;2023-02-28T04:32:50;0.30;;;0.30;;
39340;SDS011;25059;52.132;21.062;2023-02-28T04:35:34;0.30;;;0.30;;
39340;SDS011;25059;52.132;21.062;2023-02-28T04:38:19;0.35;;;0.35;;
39340;SDS011;25059;52.132;21.062;2023-02-28T04:41:03;0.40;;;0.40;;
39340;SDS011;25059;52.132;21.062;2023-02-28T04:43:48;0.30;;;0.30;;
39340;SDS011;25059;52.132;21.062;2023-02-28T04:46:34;0.40;;;0.40;;
39340;SDS011;25059;52.132;21.062;2023-02-28T04:49:19;0.30;;;0.30;;
39340;SDS011;25059;52.132;21.062;2023-02-28T04:52:04;0.20;;;0.20;;
39340;SDS011;25059;52.132;21.062;2023-02-28T04:54:48;0.40;;;0.40;;
39340;SDS011;25059;52.132;21.062;2023-02-28T04:57:33;0.40;;;0.40;;
39340;SDS011;25059;52.132;21.062;2023-02-28T05:00:18;0.30;;;0.30;;
39340;SDS011;25059;52.132;21.062;2023-02-28T05:03:03;0.43;;;0.43;;
39340;SDS011;25059;52.132;21.062;2023-02-28T05:05:47;0.30;;;0.30;;
39340;SDS011;25059;52.132;21.062;2023-02-28T05:08:32;0.40;;;0.40;;
39340;SDS011;25059;52.132;21.062;2023-02-28T05:14:06;0.40;;;0.40;;
39340;SDS011;25059;52.132;21.062;2023-02-28T05:16:54;0.38;;;0.38;;
39340;SDS011;25059;52.132;21.062;2023-02-28T05:19:39;0.30;;;0.30;;
39340;SDS011;25059;52.132;21.062;2023-02-28T05:22:23;0.40;;;0.40;;
39340;SDS011;25059;52.132;21.062;2023-02-28T05:25:23;0.30;;;0.30;;
39340;SDS011;25059;52.132;21.062;2023-02-28T05:28:08;0.30;;;0.30;;
39340;SDS011;25059;52.132;21.062;2023-02-28T05:30:53;0.40;;;0.40;;
39340;SDS011;25059;52.132;21.062;2023-02-28T05:33:37;0.30;;;0.30;;
39340;SDS011;25059;52.132;21.062;2023-02-28T05:36:22;0.30;;;0.30;;
39340;SDS011;25059;52.132;21.062;2023-02-28T05:39:07;0.30;;;0.30;;
39340;SDS011;25059;52.132;21.062;2023-02-28T05:41:57;0.30;;;0.30;;
39340;SDS011;25059;52.132;21.062;2023-02-28T05:44:41;0.30;;;0.30;;
39340;SDS011;25059;52.132;21.062;2023-02-28T05:47:26;0.30;;;0.30;;
39340;SDS011;25059;52.132;21.062;2023-02-28T05:50:10;0.30;;;0.30;;
39340;SDS011;25059;52.132;21.062;2023-02-28T05:52:55;0.30;;;0.30;;
39340;SDS011;25059;52.132;21.062;2023-02-28T05:55:40;0.30;;;0.30;;
39340;SDS011;25059;52.132;21.062;2023-02-28T05:58:25;0.30;;;0.30;;
39340;SDS011;25059;52.132;21.062;2023-02-28T06:04:20;0.38;;;0.38;;
39340;SDS011;25059;52.132;21.062;2023-02-28T06:07:05;0.30;;;0.30;;
39340;SDS011;25059;52.132;21.062;2023-02-28T06:09:50;0.20;;;0.20;;
39340;SDS011;25059;52.132;21.062;2023-02-28T06:12:34;0.30;;;0.30;;
39340;SDS011;25059;52.132;21.062;2023-02-28T06:15:19;0.30;;;0.30;;
39340;SDS011;25059;52.132;21.062;2023-02-28T06:18:04;0.20;;;0.20;;
39340;SDS011;25059;52.132;21.062;2023-02-28T06:20:53;0.28;;;0.28;;
39340;SDS011;25059;52.132;21.062;2023-02-28T06:23:38;0.20;;;0.20;;
39340;SDS011;25059;52.132;21.062;2023-02-28T06:26:23;0.30;;;0.30;;
39340;SDS011;25059;52.132;21.062;2023-02-28T06:29:08;0.20;;;0.20;;
39340;SDS011;25059;52.132;21.062;2023-02-28T06:31:53;0.20;;;0.20;;
39340;SDS011;25059;52.132;21.062;2023-02-28T06:34:37;0.28;;;0.28;;
39340;SDS011;25059;52.132;21.062;2023-02-28T06:37:22;0.20;;;0.20;;
39340;SDS011;25059;52.132;21.062;2023-02-28T06:40:10;0.20;;;0.20;;
39340;SDS011;25059;52.132;21.062;2023-02-28T06:42:55;0.30;;;0.30;;
39340;SDS011;25059;52.132;21.062;2023-02-28T06:45:41;0.20;;;0.20;;
39340;SDS011;25059;52.132;21.062;2023-02-28T06:48:27;0.20;;;0.20;;
39340;SDS011;25059;52.132;21.062;2023-02-28T06:51:14;0.20;;;0.20;;
39340;SDS011;25059;52.132;21.062;2023-02-28T06:54:00;0.30;;;0.30;;
39340;SDS011;25059;52.132;21.062;2023-02-28T06:56:45;0.20;;;0.20;;
39340;SDS011;25059;52.132;21.062;2023-02-28T06:59:31;0.20;;;0.20;;
39340;SDS011;25059;52.132;21.062;2023-02-28T07:02:15;0.30;;;0.30;;
39340;SDS011;25059;52.132;21.062;2023-02-28T07:05:06;0.20;;;0.20;;
39340;SDS011;25059;52.132;21.062;2023-02-28T07:07:51;0.17;;;0.17;;
39340;SDS011;25059;52.132;21.062;2023-02-28T07:10:44;0.20;;;0.20;;
39340;SDS011;25059;52.132;21.062;2023-02-28T07:13:32;0.30;;;0.30;;
39340;SDS011;25059;52.132;21.062;2023-02-28T07:16:19;0.30;;;0.30;;
39340;SDS011;25059;52.132;21.062;2023-02-28T07:19:06;0.20;;;0.20;;
39340;SDS011;25059;52.132;21.062;2023-02-28T07:22:08;0.20;;;0.20;;
39340;SDS011;25059;52.132;21.062;2023-02-28T07:24:53;0.20;;;0.20;;
39340;SDS011;25059;52.132;21.062;2023-02-28T07:27:38;0.28;;;0.28;;
39340;SDS011;25059;52.132;21.062;2023-02-28T07:30:28;0.20;;;0.20;;
39340;SDS011;25059;52.132;21.062;2023-02-28T07:33:17;0.20;;;0.20;;
39340;SDS011;25059;52.132;21.062;2023-02-28T07:36:04;0.32;;;0.32;;
39340;SDS011;25059;52.132;21.062;2023-02-28T07:38:55;0.20;;;0.20;;
39340;SDS011;25059;52.132;21.062;2023-02-28T07:41:42;0.30;;;0.30;;
39340;SDS011;25059;52.132;21.062;2023-02-28T07:44:34;0.20;;;0.20;;
39340;SDS011;25059;52.132;21.062;2023-02-28T07:47:19;0.20;;;0.20;;
39340;SDS011;25059;52.132;21.062;2023-02-28T07:50:08;0.15;;;0.15;;
39340;SDS011;25059;52.132;21.062;2023-02-28T07:52:57;0.20;;;0.20;;
39340;SDS011;25059;52.132;21.062;2023-02-28T07:55:49;0.28;;;0.28;;
39340;SDS011;25059;52.132;21.062;2023-02-28T07:58:34;0.30;;;0.30;;
39340;SDS011;25059;52.132;21.062;2023-02-28T08:01:24;0.20;;;0.20;;
39340;SDS011;25059;52.132;21.062;2023-02-28T08:04:14;0.30;;;0.30;;
39340;SDS011;25059;52.132;21.062;2023-02-28T08:07:04;0.20;;;0.20;;
39340;SDS011;25059;52.132;21.062;2023-02-28T08:10:55;0.30;;;0.30;;
39340;SDS011;25059;52.132;21.062;2023-02-28T08:14:11;0.30;;;0.30;;
39340;SDS011;25059;52.132;21.062;2023-02-28T08:17:46;0.20;;;0.20;;
39340;SDS011;25059;52.132;21.062;2023-02-28T08:20:41;0.20;;;0.20;;
39340;SDS011;25059;52.132;21.062;2023-02-28T08:23:35;0.20;;;0.20;;
39340;SDS011;25059;52.132;21.062;2023-02-28T08:26:36;0.30;;;0.30;;
39340;SDS011;25059;52.132;21.062;2023-02-28T08:29:39;0.20;;;0.20;;
39340;SDS011;25059;52.132;21.062;2023-02-28T08:32:25;0.20;;;0.20;;
39340;SDS011;25059;52.132;21.062;2023-02-28T08:35:14;0.30;;;0.30;;
39340;SDS011;25059;52.132;21.062;2023-02-28T08:38:14;0.20;;;0.20;;
39340;SDS011;25059;52.132;21.062;2023-02-28T08:41:09;0.20;;;0.20;;
39340;SDS011;25059;52.132;21.062;2023-02-28T08:44:04;0.30;;;0.30;;
39340;SDS011;25059;52.132;21.062;2023-02-28T08:46:48;0.30;;;0.30;;
39340;SDS011;25059;52.132;21.062;2023-02-28T08:49:36;0.30;;;0.30;;
39340;SDS011;25059;52.132;21.062;2023-02-28T08:52:22;0.30;;;0.30;;
39340;SDS011;25059;52.132;21.062;2023-02-28T09:14:49;0.20;;;0.20;;
39340;SDS011;25059;52.132;21.062;2023-02-28T09:17:40;0.30;;;0.30;;
39340;SDS011;25059;52.132;21.062;2023-02-28T09:20:31;0.20;;;0.20;;
39340;SDS011;25059;52.132;21.062;2023-02-28T09:24:28;0.30;;;0.30;;
39340;SDS011;25059;52.132;21.062;2023-02-28T09:27:20;0.30;;;0.30;;
39340;SDS011;25059;52.132;21.062;2023-02-28T09:30:30;0.30;;;0.30;;
39340;SDS011;25059;52.132;21.062;2023-02-28T09:33:17;0.30;;;0.30;;
39340;SDS011;25059;52.132;21.062;2023-02-28T09:36:14;0.30;;;0.30;;
39340;SDS011;25059;52.132;21.062;2023-02-28T09:39:02;0.30;;;0.30;;
39340;SDS011;25059;52.132;21.062;2023-02-28T09:45:13;0.30;;;0.30;;
39340;SDS011;25059;52.132;21.062;2023-02-28T09:48:14;0.30;;;0.30;;
39340;SDS011;25059;52.132;21.062;2023-02-28T09:55:42;0.30;;;0.30;;
39340;SDS011;25059;52.132;21.062;2023-02-28T10:04:16;0.30;;;0.30;;
39340;SDS011;25059;52.132;21.062;2023-02-28T10:08:16;0.20;;;0.20;;
39340;SDS011;25059;52.132;21.062;2023-02-28T10:11:40;0.30;;;0.30;;
39340;SDS011;25059;52.132;21.062;2023-02-28T10:14:28;0.28;;;0.28;;
39340;SDS011;25059;52.132;21.062;2023-02-28T10:17:16;0.20;;;0.20;;
39340;SDS011;25059;52.132;21.062;2023-02-28T10:20:11;0.20;;;0.20;;
39340;SDS011;25059;52.132;21.062;2023-02-28T10:23:20;0.17;;;0.17;;
39340;SDS011;25059;52.132;21.062;2023-02-28T10:26:12;0.10;;;0.10;;
39340;SDS011;25059;52.132;21.062;2023-02-28T10:29:03;0.20;;;0.20;;
39340;SDS011;25059;52.132;21.062;2023-02-28T10:32:08;0.20;;;0.20;;
39340;SDS011;25059;52.132;21.062;2023-02-28T10:38:27;0.10;;;0.10;;
39340;SDS011;25059;52.132;21.062;2023-02-28T10:41:33;0.10;;;0.10;;
39340;SDS011;25059;52.132;21.062;2023-02-28T10:53:39;0.10;;;0.10;;
39340;SDS011;25059;52.132;21.062;2023-02-28T11:00:16;0.10;;;0.10;;
39340;SDS011;25059;52.132;21.062;2023-02-28T11:06:59;0.10;;;0.10;;
39340;SDS011;25059;52.132;21.062;2023-02-28T11:10:16;0.10;;;0.10;;
39340;SDS011;25059;52.132;21.062;2023-02-28T11:13:13;0.10;;;0.10;;
39340;SDS011;25059;52.132;21.062;2023-02-28T11:16:13;0.10;;;0.10;;
39340;SDS011;25059;52.132;21.062;2023-02-28T11:19:00;0.05;;;0.05;;
39340;SDS011;25059;52.132;21.062;2023-02-28T11:21:51;0.10;;;0.10;;
39340;SDS011;25059;52.132;21.062;2023-02-28T11:24:41;0.10;;;0.10;;
39340;SDS011;25059;52.132;21.062;2023-02-28T11:30:26;0.00;;;0.00;;
39340;SDS011;25059;52.132;21.062;2023-02-28T11:36:34;0.00;;;0.00;;
39340;SDS011;25059;52.132;21.062;2023-02-28T11:39:20;0.05;;;0.05;;
39340;SDS011;25059;52.132;21.062;2023-02-28T11:51:50;0.10;;;0.10;;
39340;SDS011;25059;52.132;21.062;2023-02-28T11:56:00;0.10;;;0.10;;
39340;SDS011;25059;52.132;21.062;2023-02-28T11:59:10;0.10;;;0.10;;
39340;SDS011;25059;52.132;21.062;2023-02-28T12:02:31;0.10;;;0.10;;
39340;SDS011;25059;52.132;21.062;2023-02-28T12:28:49;0.10;;;0.10;;
39340;SDS011;25059;52.132;21.062;2023-02-28T12:31:41;0.10;;;0.10;;
39340;SDS011;25059;52.132;21.062;2023-02-28T12:34:44;0.10;;;0.10;;
39340;SDS011;25059;52.132;21.062;2023-02-28T12:45:56;0.10;;;0.10;;
39340;SDS011;25059;52.132;21.062;2023-02-28T12:48:52;0.10;;;0.10;;
39340;SDS011;25059;52.132;21.062;2023-02-28T12:51:48;0.10;;;0.10;;
39340;SDS011;25059;52.132;21.062;2023-02-28T12:54:44;0.10;;;0.10;;
39340;SDS011;25059;52.132;21.062;2023-02-28T13:00:25;0.10;;;0.10;;
39340;SDS011;25059;52.132;21.062;2023-02-28T13:06:21;0.10;;;0.10;;
39340;SDS011;25059;52.132;21.062;2023-02-28T13:12:14;0.10;;;0.10;;
39340;SDS011;25059;52.132;21.062;2023-02-28T13:21:46;0.10;;;0.10;;
39340;SDS011;25059;52.132;21.062;2023-02-28T13:24:49;0.10;;;0.10;;
39340;SDS011;25059;52.132;21.062;2023-02-28T13:27:50;0.10;;;0.10;;
39340;SDS011;25059;52.132;21.062;2023-02-28T13:38:01;0.10;;;0.10;;
39340;SDS011;25059;52.132;21.062;2023-02-28T13:44:28;0.10;;;0.10;;
39340;SDS011;25059;52.132;21.062;2023-02-28T13:47:20;0.10;;;0.10;;
39340;SDS011;25059;52.132;21.062;2023-02-28T13:53:27;0.15;;;0.15;;
39340;SDS011;25059;52.132;21.062;2023-02-28T13:56:32;0.10;;;0.10;;
39340;SDS011;25059;52.132;21.062;2023-02-28T14:02:45;0.10;;;0.10;;
39340;SDS011;25059;52.132;21.062;2023-02-28T14:18:34;0.10;;;0.10;;
39340;SDS011;25059;52.132;21.062;2023-02-28T14:25:11;0.15;;;0.15;;
39340;SDS011;25059;52.132;21.062;2023-02-28T14:31:25;0.20;;;0.20;;
39340;SDS011;25059;52.132;21.062;2023-02-28T14:34:27;0.10;;;0.10;;
39340;SDS011;25059;52.132;21.062;2023-02-28T14:37:33;0.10;;;0.10;;
39340;SDS011;25059;52.132;21.062;2023-02-28T14:40:33;0.10;;;0.10;;
39340;SDS011;25059;52.132;21.062;2023-02-28T14:43:24;0.10;;;0.10;;
39340;SDS011;25059;52.132;21.062;2023-02-28T14:46:12;0.10;;;0.10;;
39340;SDS011;25059;52.132;21.062;2023-02-28T14:49:04;0.10;;;0.10;;
39340;SDS011;25059;52.132;21.062;2023-02-28T14:55:06;0.20;;;0.20;;
39340;SDS011;25059;52.132;21.062;2023-02-28T14:57:59;0.20;;;0.20;;
39340;SDS011;25059;52.132;21.062;2023-02-28T15:00:49;0.10;;;0.10;;
39340;SDS011;25059;52.132;21.062;2023-02-28T15:03:39;0.10;;;0.10;;
39340;SDS011;25059;52.132;21.062;2023-02-28T15:06:25;0.20;;;0.20;;
39340;SDS011;25059;52.132;21.062;2023-02-28T15:09:13;0.20;;;0.20;;
39340;SDS011;25059;52.132;21.062;2023-02-28T15:12:04;0.20;;;0.20;;
39340;SDS011;25059;52.132;21.062;2023-02-28T15:14:49;0.20;;;0.20;;
39340;SDS011;25059;52.132;21.062;2023-02-28T15:17:34;0.20;;;0.20;;
39340;SDS011;25059;52.132;21.062;2023-02-28T15:20:20;0.20;;;0.20;;
39340;SDS011;25059;52.132;21.062;2023-02-28T15:23:05;0.10;;;0.10;;
39340;SDS011;25059;52.132;21.062;2023-02-28T15:25:51;0.20;;;0.20;;
39340;SDS011;25059;52.132;21.062;2023-02-28T15:28:38;0.13;;;0.13;;
39340;SDS011;25059;52.132;21.062;2023-02-28T15:31:26;0.20;;;0.20;;
39340;SDS011;25059;52.132;21.062;2023-02-28T15:41:21;0.20;;;0.20;;
39340;SDS011;25059;52.132;21.062;2023-02-28T15:44:14;0.20;;;0.20;;
39340;SDS011;25059;52.132;21.062;2023-02-28T15:47:01;0.20;;;0.20;;
39340;SDS011;25059;52.132;21.062;2023-02-28T15:49:49;0.20;;;0.20;;
39340;SDS011;25059;52.132;21.062;2023-02-28T15:52:38;0.20;;;0.20;;
39340;SDS011;25059;52.132;21.062;2023-02-28T15:55:27;0.20;;;0.20;;
39340;SDS011;25059;52.132;21.062;2023-02-28T15:58:21;0.20;;;0.20;;
39340;SDS011;25059;52.132;21.062;2023-02-28T16:01:08;0.30;;;0.30;;
39340;SDS011;25059;52.132;21.062;2023-02-28T16:04:05;0.30;;;0.30;;
39340;SDS011;25059;52.132;21.062;2023-02-28T16:09:42;0.30;;;0.30;;
39340;SDS011;25059;52.132;21.062;2023-02-28T16:12:28;0.22;;;0.22;;
39340;SDS011;25059;52.132;21.062;2023-02-28T16:15:22;0.30;;;0.30;;
39340;SDS011;25059;52.132;21.062;2023-02-28T16:18:11;0.30;;;0.30;;
39340;SDS011;25059;52.132;21.062;2023-02-28T16:20:56;0.35;;;0.35;;
39340;SDS011;25059;52.132;21.062;2023-02-28T16:23:41;0.30;;;0.30;;
39340;SDS011;25059;52.132;21.062;2023-02-28T16:26:25;0.30;;;0.30;;
39340;SDS011;25059;52.132;21.062;2023-02-28T16:29:14;0.30;;;0.30;;
39340;SDS011;25059;52.132;21.062;2023-02-28T16:32:06;0.30;;;0.30;;
39340;SDS011;25059;52.132;21.062;2023-02-28T16:34:51;0.30;;;0.30;;
39340;SDS011;25059;52.132;21.062;2023-02-28T16:37:36;0.30;;;0.30;;
39340;SDS011;25059;52.132;21.062;2023-02-28T16:40:22;0.20;;;0.20;;
39340;SDS011;25059;52.132;21.062;2023-02-28T16:43:12;0.30;;;0.30;;
39340;SDS011;25059;52.132;21.062;2023-02-28T16:46:01;0.20;;;0.20;;
39340;SDS011;25059;52.132;21.062;2023-02-28T16:48:47;0.20;;;0.20;;
39340;SDS011;25059;52.132;21.062;2023-02-28T16:51:36;0.30;;;0.30;;
39340;SDS011;25059;52.132;21.062;2023-02-28T16:54:21;0.30;;;0.30;;
39340;SDS011;25059;52.132;21.062;2023-02-28T16:57:07;0.30;;;0.30;;
39340;SDS011;25059;52.132;21.062;2023-02-28T17:00:04;0.30;;;0.30;;
39340;SDS011;25059;52.132;21.062;2023-02-28T17:02:52;0.20;;;0.20;;
39340;SDS011;25059;52.132;21.062;2023-02-28T17:05:37;0.20;;;0.20;;
39340;SDS011;25059;52.132;21.062;2023-02-28T17:08:23;0.28;;;0.28;;
39340;SDS011;25059;52.132;21.062;2023-02-28T17:11:08;0.30;;;0.30;;
39340;SDS011;25059;52.132;21.062;2023-02-28T17:13:53;0.30;;;0.30;;
39340;SDS011;25059;52.132;21.062;2023-02-28T17:16:38;0.20;;;0.20;;
39340;SDS011;25059;52.132;21.062;2023-02-28T17:19:39;0.20;;;0.20;;
39340;SDS011;25059;52.132;21.062;2023-02-28T17:22:27;0.20;;;0.20;;
39340;SDS011;25059;52.132;21.062;2023-02-28T17:25:11;0.25;;;0.25;;
39340;SDS011;25059;52.132;21.062;2023-02-28T17:27:56;0.20;;;0.20;;
39340;SDS011;25059;52.132;21.062;2023-02-28T17:30:41;0.40;;;0.40;;
39340;SDS011;25059;52.132;21.062;2023-02-28T17:33:31;0.20;;;0.20;;
39340;SDS011;25059;52.132;21.062;2023-02-28T17:36:16;0.20;;;0.20;;
39340;SDS011;25059;52.132;21.062;2023-02-28T17:39:08;0.30;;;0.30;;
39340;SDS011;25059;52.132;21.062;2023-02-28T17:42:13;0.20;;;0.20;;
39340;SDS011;25059;52.132;21.062;2023-02-28T17:44:58;0.20;;;0.20;;
39340;SDS011;25059;52.132;21.062;2023-02-28T17:47:43;0.20;;;0.20;;
39340;SDS011;25059;52.132;21.062;2023-02-28T17:50:31;0.20;;;0.20;;
39340;SDS011;25059;52.132;21.062;2023-02-28T17:53:16;0.25;;;0.25;;
39340;SDS011;25059;52.132;21.062;2023-02-28T17:56:01;0.30;;;0.30;;
39340;SDS011;25059;52.132;21.062;2023-02-28T17:58:46;0.30;;;0.30;;
39340;SDS011;25059;52.132;21.062;2023-02-28T18:01:31;0.20;;;0.20;;
39340;SDS011;25059;52.132;21.062;2023-02-28T18:04:16;0.20;;;0.20;;
39340;SDS011;25059;52.132;21.062;2023-02-28T18:07:00;0.30;;;0.30;;
39340;SDS011;25059;52.132;21.062;2023-02-28T18:09:45;0.20;;;0.20;;
39340;SDS011;25059;52.132;21.062;2023-02-28T18:12:30;0.28;;;0.28;;
39340;SDS011;25059;52.132;21.062;2023-02-28T18:15:16;0.20;;;0.20;;
39340;SDS011;25059;52.132;21.062;2023-02-28T18:18:02;0.20;;;0.20;;
39340;SDS011;25059;52.132;21.062;2023-02-28T18:23:52;0.20;;;0.20;;
39340;SDS011;25059;52.132;21.062;2023-02-28T18:26:37;0.20;;;0.20;;
39340;SDS011;25059;52.132;21.062;2023-02-28T18:29:23;0.13;;;0.13;;
39340;SDS011;25059;52.132;21.062;2023-02-28T18:32:10;0.20;;;0.20;;
39340;SDS011;25059;52.132;21.062;2023-02-28T18:34:55;0.20;;;0.20;;
39340;SDS011;25059;52.132;21.062;2023-02-28T18:37:40;0.20;;;0.20;;
39340;SDS011;25059;52.132;21.062;2023-02-28T18:40:25;0.10;;;0.10;;
39340;SDS011;25059;52.132;21.062;2023-02-28T18:43:09;0.20;;;0.20;;
39340;SDS011;25059;52.132;21.062;2023-02-28T18:45:54;0.20;;;0.20;;
39340;SDS011;25059;52.132;21.062;2023-02-28T18:48:38;0.20;;;0.20;;
39340;SDS011;25059;52.132;21.062;2023-02-28T18:51:25;0.20;;;0.20;;
39340;SDS011;25059;52.132;21.062;2023-02-28T18:54:10;0.20;;;0.20;;
39340;SDS011;25059;52.132;21.062;2023-02-28T18:56:55;0.15;;;0.15;;
39340;SDS011;25059;52.132;21.062;2023-02-28T18:59:40;0.20;;;0.20;;
39340;SDS011;25059;52.132;21.062;2023-02-28T19:02:25;0.30;;;0.30;;
39340;SDS011;25059;52.132;21.062;2023-02-28T19:05:10;0.20;;;0.20;;
39340;SDS011;25059;52.132;21.062;2023-02-28T19:07:55;0.30;;;0.30;;
39340;SDS011;25059;52.132;21.062;2023-02-28T19:10:40;0.30;;;0.30;;
39340;SDS011;25059;52.132;21.062;2023-02-28T19:13:24;0.30;;;0.30;;
39340;SDS011;25059;52.132;21.062;2023-02-28T19:16:10;0.20;;;0.20;;
39340;SDS011;25059;52.132;21.062;2023-02-28T19:18:56;0.13;;;0.13;;
39340;SDS011;25059;52.132;21.062;2023-02-28T19:21:40;0.20;;;0.20;;
39340;SDS011;25059;52.132;21.062;2023-02-28T19:24:25;0.20;;;0.20;;
39340;SDS011;25059;52.132;21.062;2023-02-28T19:27:09;0.22;;;0.22;;
39340;SDS011;25059;52.132;21.062;2023-02-28T19:29:54;0.20;;;0.20;;
39340;SDS011;25059;52.132;21.062;2023-02-28T19:32:42;0.20;;;0.20;;
39340;SDS011;25059;52.132;21.062;2023-02-28T19:35:27;0.20;;;0.20;;
39340;SDS011;25059;52.132;21.062;2023-02-28T19:38:11;0.30;;;0.30;;
39340;SDS011;25059;52.132;21.062;2023-02-28T19:41:00;0.20;;;0.20;;
39340;SDS011;25059;52.132;21.062;2023-02-28T19:43:45;0.20;;;0.20;;
39340;SDS011;25059;52.132;21.062;2023-02-28T19:46:30;0.20;;;0.20;;
39340;SDS011;25059;52.132;21.062;2023-02-28T19:49:15;0.30;;;0.30;;
39340;SDS011;25059;52.132;21.062;2023-02-28T19:52:02;0.20;;;0.20;;
39340;SDS011;25059;52.132;21.062;2023-02-28T19:54:47;0.30;;;0.30;;
39340;SDS011;25059;52.132;21.062;2023-02-28T19:57:32;0.30;;;0.30;;
39340;SDS011;25059;52.132;21.062;2023-02-28T20:00:17;0.20;;;0.20;;
39340;SDS011;25059;52.132;21.062;2023-02-28T20:03:02;0.20;;;0.20;;
39340;SDS011;25059;52.132;21.062;2023-02-28T20:05:47;0.30;;;0.30;;
39340;SDS011;25059;52.132;21.062;2023-02-28T20:08:43;0.30;;;0.30;;
39340;SDS011;25059;52.132;21.062;2023-02-28T20:11:27;0.20;;;0.20;;
39340;SDS011;25059;52.132;21.062;2023-02-28T20:14:13;0.30;;;0.30;;
39340;SDS011;25059;52.132;21.062;2023-02-28T20:16:58;0.20;;;0.20;;